Terminal Aerodrome Forecast
Issued by NWS Bismarck, ND

Home | Current Version | Previous Version | Graphics & Text | Print | Product List | Glossary On
Versions: 1 2 3 4 5 6 7 8 9 10 11 12 13 14 15 16 17 18
840
FTUS43 KBIS 191120
TAFISN
TAF
KISN 191120Z 1912/2012 03006KT 3/4SM BR VV002
      TEMPO 1912/1914 1/2SM FZFG
     FM191400 VRB03KT 2SM BR BKN003
     FM191600 11005KT 4SM BR BKN010
     FM191700 11006KT P6SM SCT150=

USA.gov is the U.S. government's official web portal to all federal, state and local government web resources and services.